Time;durP1;ratioP1;P1;durP2;ratioP2;P2;SDS_P1;SDS_P2;PMS_P1;PMS_P2;Temp;Humidity;BMP_temperature;BMP_pressure;BME280_temperature;BME280_humidity;BME280_pressure;Samples;Min_cycle;Max_cycle;Signal;HPM_P1;HPM_P2
2022/11/01 00:02:01;;;;;;;20.92;8.15;;;;;;;;;;7353118;19;20521;-83
2022/11/01 00:04:26;;;;;;;18.02;8.70;;;;;;;;;;7374351;19;20478;-82
2022/11/01 00:06:51;;;;;;;17.08;9.57;;;;;;;;;;7375211;19;20031;-85
2022/11/01 00:09:16;;;;;;;22.70;9.27;;;;;;;;;;7374864;19;20003;-81
2022/11/01 00:11:42;;;;;;;18.85;9.43;;;;;;;;;;7374671;19;20275;-83
2022/11/01 00:14:09;;;;;;;21.20;8.40;;;;;;;;;;7368002;19;20010;-82
2022/11/01 00:16:35;;;;;;;18.67;9.45;;;;;;;;;;7365926;19;20757;-81
2022/11/01 00:19:00;;;;;;;28.90;10.20;;;;;;;;;;7378580;19;20039;-83
2022/11/01 00:21:25;;;;;;;21.73;10.05;;;;;;;;;;7375571;19;20010;-84
2022/11/01 00:23:50;;;;;;;29.77;10.60;;;;;;;;;;7371530;19;20022;-81
2022/11/01 00:26:17;;;;;;;21.60;10.27;;;;;;;;;;7370728;19;20898;-81
2022/11/01 00:28:43;;;;;;;25.55;10.60;;;;;;;;;;7372814;19;19998;-81
2022/11/01 00:31:09;;;;;;;17.73;9.50;;;;;;;;;;7375776;19;20019;-80
2022/11/01 00:33:35;;;;;;;23.55;10.38;;;;;;;;;;7375241;19;20570;-82
2022/11/01 00:36:00;;;;;;;23.50;10.13;;;;;;;;;;7376238;19;20344;-83
2022/11/01 00:38:26;;;;;;;25.90;11.13;;;;;;;;;;7373132;19;19995;-82
2022/11/01 00:40:51;;;;;;;20.35;10.82;;;;;;;;;;7374844;19;20010;-80
2022/11/01 00:43:16;;;;;;;23.83;11.70;;;;;;;;;;7378511;19;20001;-80
2022/11/01 00:45:42;;;;;;;21.53;11.50;;;;;;;;;;7359140;19;20048;-83
2022/11/01 00:48:07;;;;;;;21.27;10.90;;;;;;;;;;7376310;19;20263;-81
2022/11/01 00:50:33;;;;;;;32.83;11.80;;;;;;;;;;7376499;19;20002;-83
2022/11/01 00:52:58;;;;;;;26.08;11.98;;;;;;;;;;7372137;19;20025;-80
2022/11/01 00:55:23;;;;;;;21.90;10.93;;;;;;;;;;7370446;19;20006;-82
2022/11/01 00:57:48;;;;;;;22.77;10.77;;;;;;;;;;7370932;19;20570;-81
2022/11/01 01:00:14;;;;;;;20.77;11.13;;;;;;;;;;7374649;19;20319;-84
2022/11/01 01:02:39;;;;;;;21.63;11.10;;;;;;;;;;7366940;19;20006;-84
2022/11/01 01:05:05;;;;;;;20.33;10.32;;;;;;;;;;7374695;19;20498;-80
2022/11/01 01:07:30;;;;;;;20.05;9.90;;;;;;;;;;7368706;19;20066;-81
2022/11/01 01:09:56;;;;;;;19.35;9.73;;;;;;;;;;7353554;19;20010;-84
2022/11/01 01:12:21;;;;;;;24.80;9.93;;;;;;;;;;7363496;19;20002;-80
2022/11/01 01:14:46;;;;;;;18.85;9.07;;;;;;;;;;7367960;19;20021;-80
2022/11/01 01:17:11;;;;;;;21.17;9.75;;;;;;;;;;7376313;19;20007;-84
2022/11/01 01:19:37;;;;;;;16.70;9.70;;;;;;;;;;7372060;19;20855;-82
2022/11/01 01:22:02;;;;;;;18.67;8.93;;;;;;;;;;7371667;19;20271;-82
2022/11/01 01:24:27;;;;;;;17.55;10.07;;;;;;;;;;7373513;19;20236;-81
2022/11/01 01:26:53;;;;;;;26.40;10.90;;;;;;;;;;7377926;19;20043;-85
2022/11/01 01:29:18;;;;;;;19.00;10.00;;;;;;;;;;7368773;19;20271;-81
2022/11/01 01:31:43;;;;;;;16.70;9.75;;;;;;;;;;7364986;19;20019;-81
2022/11/01 01:34:08;;;;;;;17.48;9.38;;;;;;;;;;7376322;19;20593;-84
2022/11/01 01:36:33;;;;;;;19.58;8.80;;;;;;;;;;7372885;19;20006;-84
2022/11/01 01:38:59;;;;;;;23.95;8.45;;;;;;;;;;7369251;19;20468;-81
2022/11/01 01:44:27;;;;;;;18.55;8.25;;;;;;;;;;7342862;19;20023;-81
2022/11/01 01:46:52;;;;;;;21.15;9.20;;;;;;;;;;7362082;19;20025;-80
2022/11/01 01:49:17;;;;;;;18.60;8.43;;;;;;;;;;7371392;19;20311;-82
2022/11/01 01:51:42;;;;;;;16.70;8.00;;;;;;;;;;7371169;19;20375;-81
2022/11/01 01:54:07;;;;;;;14.23;7.17;;;;;;;;;;7370538;19;19995;-85
2022/11/01 01:56:34;;;;;;;18.52;8.27;;;;;;;;;;7371063;19;20371;-84
2022/11/01 01:59:02;;;;;;;17.13;8.35;;;;;;;;;;7367958;19;20383;-81
2022/11/01 02:01:27;;;;;;;16.08;7.10;;;;;;;;;;7354531;19;20356;-83
2022/11/01 02:03:53;;;;;;;14.57;7.30;;;;;;;;;;7374066;19;20035;-80
2022/11/01 02:06:19;;;;;;;15.07;7.75;;;;;;;;;;7366647;19;20094;-81
2022/11/01 02:08:47;;;;;;;15.38;7.95;;;;;;;;;;7365332;19;20337;-81
2022/11/01 02:11:13;;;;;;;16.73;8.07;;;;;;;;;;7368121;19;20010;-83
2022/11/01 02:13:38;;;;;;;21.35;8.15;;;;;;;;;;7370595;19;20031;-80
2022/11/01 02:16:06;;;;;;;15.57;7.57;;;;;;;;;;7367194;19;19999;-81
2022/11/01 02:18:38;;;;;;;19.25;7.45;;;;;;;;;;7373424;19;20005;-80
2022/11/01 02:21:12;;;;;;;17.27;8.00;;;;;;;;;;7370461;19;20038;-83
2022/11/01 02:24:03;;;;;;;16.95;8.20;;;;;;;;;;7370094;19;20423;-81
2022/11/01 02:26:53;;;;;;;21.75;8.98;;;;;;;;;;7365369;19;20006;-81
2022/11/01 02:29:33;;;;;;;20.83;7.45;;;;;;;;;;7340113;19;20090;-84
2022/11/01 02:32:19;;;;;;;16.15;7.55;;;;;;;;;;7371155;19;19999;-81
2022/11/01 02:34:55;;;;;;;18.85;8.57;;;;;;;;;;7377452;19;20006;-85
2022/11/01 02:37:24;;;;;;;16.80;8.05;;;;;;;;;;7371796;19;20022;-80
2022/11/01 02:39:51;;;;;;;17.38;6.80;;;;;;;;;;7383520;19;20018;-80
2022/11/01 02:42:16;;;;;;;14.82;8.05;;;;;;;;;;7378734;19;20019;-81
2022/11/01 02:44:44;;;;;;;12.05;6.95;;;;;;;;;;7368169;19;20067;-81
2022/11/01 02:47:11;;;;;;;15.00;7.50;;;;;;;;;;7369910;19;20133;-82
2022/11/01 02:49:43;;;;;;;19.27;7.60;;;;;;;;;;7376481;19;20503;-80
2022/11/01 02:52:10;;;;;;;16.55;8.32;;;;;;;;;;7379527;19;20018;-81
2022/11/01 02:54:41;;;;;;;18.67;7.65;;;;;;;;;;7380087;19;20014;-84
2022/11/01 02:57:21;;;;;;;13.65;7.40;;;;;;;;;;7370446;19;20003;-81
2022/11/01 02:59:47;;;;;;;12.38;6.40;;;;;;;;;;7377703;19;20022;-81
2022/11/01 03:02:19;;;;;;;16.05;7.60;;;;;;;;;;7374179;19;20018;-84
2022/11/01 03:04:44;;;;;;;16.80;7.47;;;;;;;;;;7366505;19;20027;-81
2022/11/01 03:07:11;;;;;;;18.67;7.40;;;;;;;;;;7384771;19;20458;-81
2022/11/01 03:09:36;;;;;;;16.63;6.60;;;;;;;;;;7372442;19;20351;-81
2022/11/01 03:12:07;;;;;;;14.98;6.47;;;;;;;;;;7369604;19;20294;-81
2022/11/01 03:14:36;;;;;;;14.48;7.45;;;;;;;;;;7371227;19;20025;-84
2022/11/01 03:17:05;;;;;;;17.70;6.72;;;;;;;;;;7378949;19;20010;-82
2022/11/01 03:19:40;;;;;;;12.05;6.40;;;;;;;;;;7379050;19;20077;-82
2022/11/01 03:22:14;;;;;;;14.50;6.40;;;;;;;;;;7377657;19;20533;-80
2022/11/01 03:24:44;;;;;;;13.70;6.50;;;;;;;;;;7377516;19;20010;-82
2022/11/01 03:27:14;;;;;;;17.58;5.72;;;;;;;;;;7375133;19;20079;-81
2022/11/01 03:29:41;;;;;;;16.58;6.35;;;;;;;;;;7373248;19;20006;-82
2022/11/01 03:32:07;;;;;;;11.85;6.63;;;;;;;;;;7377208;19;20053;-80
2022/11/01 03:34:34;;;;;;;16.73;7.03;;;;;;;;;;7367875;19;20003;-83
2022/11/01 03:37:01;;;;;;;13.90;5.70;;;;;;;;;;7375692;19;20039;-81
2022/11/01 03:39:29;;;;;;;11.70;5.75;;;;;;;;;;7375867;19;20021;-80
2022/11/01 03:41:57;;;;;;;16.23;6.13;;;;;;;;;;7370930;19;20023;-81
2022/11/01 03:44:23;;;;;;;14.93;5.88;;;;;;;;;;7361884;19;20014;-82
2022/11/01 03:46:49;;;;;;;16.02;6.03;;;;;;;;;;7360753;19;20044;-85
2022/11/01 03:49:18;;;;;;;17.10;6.10;;;;;;;;;;7367769;19;20535;-83
2022/11/01 03:51:43;;;;;;;13.73;5.22;;;;;;;;;;7373652;19;20546;-81
2022/11/01 03:54:09;;;;;;;16.88;6.40;;;;;;;;;;7370298;19;20114;-83
2022/11/01 03:56:35;;;;;;;14.65;5.93;;;;;;;;;;7367603;19;20066;-85
2022/11/01 03:59:00;;;;;;;16.48;5.80;;;;;;;;;;7371670;19;20010;-83
2022/11/01 04:01:25;;;;;;;12.53;5.53;;;;;;;;;;7370805;19;19994;-84
2022/11/01 04:03:51;;;;;;;16.40;5.45;;;;;;;;;;7359408;19;20026;-84
2022/11/01 04:06:16;;;;;;;14.90;5.68;;;;;;;;;;7376282;19;20003;-82
2022/11/01 04:08:41;;;;;;;10.83;5.70;;;;;;;;;;7371373;19;20015;-82
2022/11/01 04:11:06;;;;;;;14.53;5.60;;;;;;;;;;7367607;19;20275;-81
2022/11/01 04:13:31;;;;;;;18.00;5.73;;;;;;;;;;7371426;19;20014;-83
2022/11/01 04:21:39;;;;;;;9.52;4.57;;;;;;;;;;7370745;19;20031;-81
2022/11/01 04:24:04;;;;;;;14.05;5.38;;;;;;;;;;7377329;19;20077;-82
2022/11/01 04:26:30;;;;;;;13.15;5.50;;;;;;;;;;7371865;19;20464;-82
2022/11/01 04:28:58;;;;;;;10.88;5.00;;;;;;;;;;7356836;19;20035;-82
2022/11/01 04:31:24;;;;;;;13.68;4.88;;;;;;;;;;7374238;19;20011;-82
2022/11/01 04:33:50;;;;;;;18.83;5.88;;;;;;;;;;7375115;19;20443;-80
2022/11/01 04:36:15;;;;;;;13.52;4.90;;;;;;;;;;7376034;19;19999;-81
2022/11/01 04:38:40;;;;;;;12.38;5.43;;;;;;;;;;7373839;19;20066;-80
2022/11/01 04:41:05;;;;;;;11.40;4.60;;;;;;;;;;7374526;19;20098;-84
2022/11/01 04:43:31;;;;;;;13.07;4.63;;;;;;;;;;7364061;19;20019;-80
2022/11/01 04:45:56;;;;;;;13.73;4.97;;;;;;;;;;7376661;19;20263;-81
2022/11/01 04:48:21;;;;;;;13.98;4.95;;;;;;;;;;7362964;19;20827;-82
2022/11/01 04:50:46;;;;;;;13.10;4.57;;;;;;;;;;7368614;19;20027;-84
2022/11/01 04:53:12;;;;;;;15.40;4.73;;;;;;;;;;7378183;19;19998;-81
2022/11/01 04:55:37;;;;;;;19.45;4.57;;;;;;;;;;7370787;19;20314;-85
2022/11/01 04:58:03;;;;;;;13.95;4.53;;;;;;;;;;7359088;19;20037;-84
2022/11/01 05:00:28;;;;;;;12.73;4.78;;;;;;;;;;7358272;19;20010;-81
2022/11/01 05:02:59;;;;;;;10.80;4.47;;;;;;;;;;7372997;19;19998;-81
2022/11/01 05:05:24;;;;;;;10.20;4.80;;;;;;;;;;7362956;19;20242;-83
2022/11/01 05:07:49;;;;;;;10.47;5.40;;;;;;;;;;7371731;19;20570;-83
2022/11/01 05:10:14;;;;;;;12.35;4.13;;;;;;;;;;7375096;19;20256;-82
2022/11/01 05:12:40;;;;;;;11.30;4.70;;;;;;;;;;7367315;19;19991;-81
2022/11/01 05:15:05;;;;;;;10.88;3.90;;;;;;;;;;7370025;19;20284;-84
2022/11/01 05:17:30;;;;;;;11.85;4.35;;;;;;;;;;7370959;19;20018;-81
2022/11/01 05:19:56;;;;;;;9.52;3.97;;;;;;;;;;7364554;19;20623;-82
2022/11/01 05:22:21;;;;;;;11.40;3.88;;;;;;;;;;7368303;19;20018;-80
2022/11/01 05:24:46;;;;;;;13.47;3.57;;;;;;;;;;7377097;19;20010;-85
2022/11/01 05:27:11;;;;;;;14.55;4.07;;;;;;;;;;7378847;19;20255;-80
2022/11/01 05:29:36;;;;;;;14.40;3.65;;;;;;;;;;7363869;19;20006;-83
2022/11/01 05:32:02;;;;;;;9.80;3.93;;;;;;;;;;7368410;19;20381;-82
2022/11/01 05:34:27;;;;;;;11.70;3.70;;;;;;;;;;7367785;19;19994;-80
2022/11/01 05:36:52;;;;;;;12.35;3.22;;;;;;;;;;7371029;19;20093;-82
2022/11/01 05:39:18;;;;;;;11.27;3.53;;;;;;;;;;7369847;19;20025;-81
2022/11/01 05:41:43;;;;;;;12.02;3.05;;;;;;;;;;7375919;19;20336;-82
2022/11/01 05:44:08;;;;;;;10.25;3.45;;;;;;;;;;7364042;19;20013;-81
2022/11/01 05:46:33;;;;;;;9.13;3.70;;;;;;;;;;7373914;19;19995;-81
2022/11/01 05:48:58;;;;;;;8.18;2.78;;;;;;;;;;7371831;19;20243;-81
2022/11/01 05:51:24;;;;;;;13.77;4.23;;;;;;;;;;7366505;19;20041;-82
2022/11/01 05:53:49;;;;;;;10.43;3.20;;;;;;;;;;7373052;19;20262;-81
2022/11/01 05:56:15;;;;;;;6.93;2.75;;;;;;;;;;7369730;19;20091;-80
2022/11/01 05:58:40;;;;;;;11.40;3.85;;;;;;;;;;7365584;19;20006;-81
2022/11/01 06:01:05;;;;;;;6.57;2.78;;;;;;;;;;7372367;19;20009;-81
2022/11/01 06:03:31;;;;;;;11.68;4.28;;;;;;;;;;7374352;19;20016;-80
2022/11/01 06:05:56;;;;;;;8.45;3.47;;;;;;;;;;7365663;19;20006;-81
2022/11/01 06:08:22;;;;;;;8.02;3.05;;;;;;;;;;7369117;19;20013;-82
2022/11/01 06:10:47;;;;;;;8.68;3.08;;;;;;;;;;7346024;19;20585;-81
2022/11/01 06:13:12;;;;;;;9.82;2.78;;;;;;;;;;7351488;19;20583;-81
2022/11/01 06:15:37;;;;;;;9.23;2.67;;;;;;;;;;7371685;19;20471;-79
2022/11/01 06:18:03;;;;;;;10.33;2.73;;;;;;;;;;7374111;19;20001;-78
2022/11/01 06:20:29;;;;;;;6.78;2.42;;;;;;;;;;7365214;19;20015;-82
2022/11/01 06:22:54;;;;;;;8.48;2.60;;;;;;;;;;7373098;19;20014;-79
2022/11/01 06:25:20;;;;;;;7.30;2.42;;;;;;;;;;7373788;19;20015;-78
2022/11/01 06:27:45;;;;;;;9.38;2.60;;;;;;;;;;7376451;19;20006;-79
2022/11/01 06:30:10;;;;;;;10.13;2.90;;;;;;;;;;7365873;19;20014;-79
2022/11/01 06:32:36;;;;;;;7.90;2.47;;;;;;;;;;7371326;19;20475;-78
2022/11/01 06:35:01;;;;;;;8.40;2.28;;;;;;;;;;7376698;19;20031;-81
2022/11/01 06:37:26;;;;;;;9.00;2.53;;;;;;;;;;7363566;19;20002;-82
2022/11/01 06:39:51;;;;;;;8.68;2.42;;;;;;;;;;7373601;19;20347;-81
2022/11/01 06:42:16;;;;;;;7.83;2.00;;;;;;;;;;7361625;19;19994;-80
2022/11/01 06:44:42;;;;;;;8.20;1.80;;;;;;;;;;7359626;19;20255;-82
2022/11/01 06:47:07;;;;;;;6.40;2.13;;;;;;;;;;7371772;19;20838;-79
2022/11/01 06:49:32;;;;;;;8.13;1.60;;;;;;;;;;7377913;19;20492;-80
2022/11/01 06:51:57;;;;;;;7.00;1.65;;;;;;;;;;7365452;19;20485;-80
2022/11/01 06:54:23;;;;;;;8.32;1.73;;;;;;;;;;7376330;19;20018;-80
2022/11/01 06:56:48;;;;;;;6.55;1.50;;;;;;;;;;7375161;19;20083;-80
2022/11/01 06:59:15;;;;;;;6.35;1.70;;;;;;;;;;7345187;19;19999;-83
2022/11/01 07:01:40;;;;;;;5.95;1.30;;;;;;;;;;7366577;19;20015;-81
2022/11/01 07:04:05;;;;;;;7.35;1.52;;;;;;;;;;7375102;19;19994;-80
2022/11/01 07:06:30;;;;;;;11.53;2.23;;;;;;;;;;7371096;19;20024;-80
2022/11/01 07:08:57;;;;;;;9.83;2.00;;;;;;;;;;7374035;19;20782;-80
2022/11/01 07:11:22;;;;;;;12.27;2.00;;;;;;;;;;7367894;19;20276;-82
2022/11/01 07:13:47;;;;;;;5.80;1.53;;;;;;;;;;7369793;19;20003;-82
2022/11/01 07:16:13;;;;;;;9.33;1.87;;;;;;;;;;7371063;19;20827;-83
2022/11/01 07:18:38;;;;;;;6.50;1.58;;;;;;;;;;7382218;19;20381;-79
2022/11/01 07:21:03;;;;;;;8.35;2.00;;;;;;;;;;7376782;19;20365;-80
2022/11/01 07:23:29;;;;;;;9.10;1.83;;;;;;;;;;7351220;19;20021;-82
2022/11/01 07:25:54;;;;;;;5.50;1.42;;;;;;;;;;7379548;19;20006;-80
2022/11/01 07:28:19;;;;;;;7.53;1.80;;;;;;;;;;7368040;19;20644;-81
2022/11/01 07:30:51;;;;;;;8.40;1.50;;;;;;;;;;7373957;19;20023;-80
2022/11/01 07:33:17;;;;;;;8.65;1.90;;;;;;;;;;7383569;19;19991;-80
2022/11/01 07:35:42;;;;;;;9.32;1.77;;;;;;;;;;7374207;19;20035;-80
2022/11/01 07:38:08;;;;;;;6.90;1.98;;;;;;;;;;7379816;19;20074;-81
2022/11/01 07:40:34;;;;;;;13.32;2.28;;;;;;;;;;7381720;19;19999;-80
2022/11/01 07:42:59;;;;;;;10.45;2.13;;;;;;;;;;7374300;19;20004;-82
2022/11/01 07:45:26;;;;;;;8.57;1.50;;;;;;;;;;7378505;19;20010;-80
2022/11/01 07:47:51;;;;;;;9.68;1.75;;;;;;;;;;7377384;19;20514;-80
2022/11/01 07:50:16;;;;;;;12.85;1.98;;;;;;;;;;7377421;19;20015;-80
2022/11/01 07:52:42;;;;;;;10.30;1.45;;;;;;;;;;7368542;19;20018;-81
2022/11/01 07:55:07;;;;;;;6.80;1.70;;;;;;;;;;7375566;19;20032;-80
2022/11/01 07:57:37;;;;;;;6.70;1.50;;;;;;;;;;7374020;19;20015;-80
2022/11/01 08:00:03;;;;;;;10.07;2.50;;;;;;;;;;7346235;19;20491;-81
2022/11/01 08:02:28;;;;;;;11.80;1.70;;;;;;;;;;7378865;19;20014;-80
2022/11/01 08:04:53;;;;;;;8.07;1.70;;;;;;;;;;7374522;19;20760;-82
2022/11/01 08:07:18;;;;;;;7.13;1.47;;;;;;;;;;7374049;19;20347;-81
2022/11/01 08:09:44;;;;;;;8.13;1.50;;;;;;;;;;7373070;19;20235;-80
2022/11/01 08:12:09;;;;;;;7.38;1.60;;;;;;;;;;7374006;19;20243;-80
2022/11/01 08:14:34;;;;;;;7.43;1.53;;;;;;;;;;7363751;19;20104;-80
2022/11/01 08:17:00;;;;;;;8.60;1.80;;;;;;;;;;7373840;19;20264;-79
2022/11/01 08:19:25;;;;;;;9.63;1.83;;;;;;;;;;7361096;19;20258;-80
2022/11/01 08:21:51;;;;;;;7.32;1.60;;;;;;;;;;7361941;19;20015;-80
2022/11/01 08:24:16;;;;;;;7.78;1.60;;;;;;;;;;7371097;19;20011;-81
2022/11/01 08:26:41;;;;;;;12.32;1.88;;;;;;;;;;7378767;19;19998;-81
2022/11/01 08:29:06;;;;;;;8.90;1.73;;;;;;;;;;7360658;19;20115;-80
2022/11/01 08:31:31;;;;;;;9.48;1.88;;;;;;;;;;7353251;19;20435;-81
2022/11/01 08:33:57;;;;;;;14.90;2.05;;;;;;;;;;7375348;19;20010;-80
2022/11/01 08:36:22;;;;;;;11.73;1.60;;;;;;;;;;7365656;19;20724;-81
2022/11/01 08:38:47;;;;;;;8.45;1.88;;;;;;;;;;7342179;19;20231;-83
2022/11/01 08:41:13;;;;;;;9.70;1.75;;;;;;;;;;7372374;19;20420;-81
2022/11/01 08:43:38;;;;;;;8.73;1.60;;;;;;;;;;7339661;19;20010;-82
2022/11/01 08:46:03;;;;;;;10.50;1.83;;;;;;;;;;7369052;19;20031;-80
2022/11/01 08:48:28;;;;;;;10.38;1.80;;;;;;;;;;7377757;19;20660;-81
2022/11/01 08:50:53;;;;;;;9.10;1.67;;;;;;;;;;7377695;19;20732;-81
2022/11/01 08:53:19;;;;;;;11.88;2.22;;;;;;;;;;7371294;19;20259;-83
2022/11/01 08:55:44;;;;;;;11.10;2.00;;;;;;;;;;7365755;19;20018;-81
2022/11/01 08:58:09;;;;;;;15.70;3.58;;;;;;;;;;7376683;19;20010;-81
2022/11/01 09:00:34;;;;;;;12.63;2.10;;;;;;;;;;7378870;19;20015;-80
2022/11/01 09:02:59;;;;;;;14.85;2.50;;;;;;;;;;7366896;19;19998;-80
2022/11/01 09:05:25;;;;;;;12.43;1.98;;;;;;;;;;7380218;19;20471;-81
2022/11/01 09:07:55;;;;;;;12.77;2.20;;;;;;;;;;7381546;19;20013;-81
2022/11/01 09:10:20;;;;;;;15.20;2.95;;;;;;;;;;7368543;19;20006;-80
2022/11/01 09:12:45;;;;;;;12.30;2.50;;;;;;;;;;7376793;19;20072;-81
2022/11/01 09:15:10;;;;;;;11.57;2.47;;;;;;;;;;7367823;19;20255;-82
2022/11/01 09:17:35;;;;;;;21.03;2.73;;;;;;;;;;7377136;19;20240;-81
2022/11/01 09:20:01;;;;;;;13.57;2.72;;;;;;;;;;7378678;19;20060;-81
2022/11/01 09:22:27;;;;;;;14.05;2.80;;;;;;;;;;7375898;19;19998;-82
2022/11/01 09:24:54;;;;;;;14.85;2.50;;;;;;;;;;7379623;19;20003;-80
2022/11/01 09:27:19;;;;;;;11.98;2.13;;;;;;;;;;7375355;19;20017;-80
2022/11/01 09:29:44;;;;;;;15.67;2.20;;;;;;;;;;7375304;19;20571;-81
2022/11/01 09:32:09;;;;;;;17.37;2.50;;;;;;;;;;7370973;19;20279;-80
2022/11/01 09:34:35;;;;;;;15.90;2.30;;;;;;;;;;7380993;19;20258;-82
2022/11/01 09:37:00;;;;;;;12.00;1.90;;;;;;;;;;7379605;19;20506;-80
2022/11/01 09:39:26;;;;;;;15.65;2.60;;;;;;;;;;7371532;19;20016;-80
2022/11/01 09:41:55;;;;;;;16.98;2.92;;;;;;;;;;7375661;19;20063;-81
2022/11/01 09:44:34;;;;;;;11.75;2.05;;;;;;;;;;7353217;19;20630;-83
2022/11/01 09:47:01;;;;;;;13.13;2.65;;;;;;;;;;7375080;19;20039;-81
2022/11/01 09:49:28;;;;;;;13.80;2.30;;;;;;;;;;7379763;19;20337;-81
2022/11/01 09:51:53;;;;;;;11.48;2.10;;;;;;;;;;7377660;19;20100;-83
2022/11/01 09:54:20;;;;;;;13.57;2.42;;;;;;;;;;7364662;19;20006;-83
2022/11/01 09:57:01;;;;;;;11.85;2.60;;;;;;;;;;7365539;19;20475;-81
2022/11/01 09:59:40;;;;;;;13.05;2.40;;;;;;;;;;7372899;19;20354;-81
2022/11/01 10:02:25;;;;;;;14.85;2.65;;;;;;;;;;7363352;19;20006;-81
2022/11/01 10:04:59;;;;;;;16.13;2.72;;;;;;;;;;7377998;19;20002;-81
2022/11/01 10:07:42;;;;;;;18.02;2.40;;;;;;;;;;7377667;19;20017;-81
2022/11/01 10:10:10;;;;;;;16.05;2.70;;;;;;;;;;7379369;19;20052;-82
2022/11/01 10:12:41;;;;;;;15.88;2.90;;;;;;;;;;7377102;19;20396;-80
2022/11/01 10:15:09;;;;;;;12.13;2.58;;;;;;;;;;7374584;19;20016;-81
2022/11/01 10:17:46;;;;;;;13.13;2.15;;;;;;;;;;7371496;19;20014;-81
2022/11/01 10:20:12;;;;;;;14.45;2.55;;;;;;;;;;7378607;19;20014;-82
2022/11/01 10:22:39;;;;;;;16.25;2.75;;;;;;;;;;7366659;19;20487;-82
2022/11/01 10:25:13;;;;;;;15.38;2.60;;;;;;;;;;7378927;19;20635;-81
2022/11/01 10:27:49;;;;;;;17.00;2.70;;;;;;;;;;7371876;19;20007;-80
2022/11/01 10:30:16;;;;;;;19.85;3.33;;;;;;;;;;7367298;19;20464;-81
2022/11/01 10:32:46;;;;;;;17.75;2.30;;;;;;;;;;7373736;19;19999;-82
2022/11/01 10:35:17;;;;;;;12.98;2.88;;;;;;;;;;7379211;19;20013;-83
2022/11/01 10:37:42;;;;;;;26.08;2.53;;;;;;;;;;7376931;19;19998;-81
2022/11/01 10:40:13;;;;;;;17.63;2.70;;;;;;;;;;7377271;19;20085;-81
2022/11/01 10:42:39;;;;;;;16.67;2.33;;;;;;;;;;7371094;19;20049;-82
2022/11/01 10:45:07;;;;;;;9.45;2.13;;;;;;;;;;7373174;19;20010;-81
2022/11/01 10:47:32;;;;;;;15.32;2.42;;;;;;;;;;7377992;19;20003;-81
2022/11/01 10:50:00;;;;;;;22.23;2.47;;;;;;;;;;7379153;19;20074;-80
2022/11/01 10:52:31;;;;;;;10.65;2.00;;;;;;;;;;7376025;19;20011;-81
2022/11/01 10:54:57;;;;;;;18.75;2.50;;;;;;;;;;7381694;19;20368;-82
2022/11/01 10:57:37;;;;;;;12.43;2.10;;;;;;;;;;7383220;19;20002;-81
2022/11/01 11:00:05;;;;;;;11.43;2.15;;;;;;;;;;7383117;19;20010;-83
2022/11/01 11:02:42;;;;;;;20.45;2.33;;;;;;;;;;7380303;19;20771;-82
2022/11/01 11:05:12;;;;;;;13.93;2.40;;;;;;;;;;7376018;19;20018;-81
2022/11/01 11:07:37;;;;;;;12.85;2.20;;;;;;;;;;7385249;19;19994;-80
2022/11/01 11:10:03;;;;;;;15.75;2.45;;;;;;;;;;7386823;19;20009;-83
2022/11/01 11:12:29;;;;;;;16.63;2.08;;;;;;;;;;7375629;19;20490;-81
2022/11/01 11:14:56;;;;;;;16.08;2.92;;;;;;;;;;7381379;19;20014;-82
2022/11/01 11:17:23;;;;;;;16.95;2.58;;;;;;;;;;7386489;19;19998;-82
2022/11/01 11:19:51;;;;;;;9.52;2.22;;;;;;;;;;7368375;19;20010;-83
2022/11/01 11:22:16;;;;;;;14.40;2.30;;;;;;;;;;7383165;19;20007;-81
2022/11/01 11:24:42;;;;;;;13.20;2.05;;;;;;;;;;7387781;19;20013;-81
2022/11/01 11:27:16;;;;;;;16.38;2.70;;;;;;;;;;7349599;19;20119;-81
2022/11/01 11:29:47;;;;;;;11.65;2.15;;;;;;;;;;7378314;19;20011;-83
2022/11/01 11:32:17;;;;;;;21.08;2.63;;;;;;;;;;7379962;19;20945;-81
2022/11/01 11:34:42;;;;;;;11.57;2.25;;;;;;;;;;7375541;19;20440;-80
2022/11/01 11:37:15;;;;;;;10.35;1.88;;;;;;;;;;7384999;19;20014;-82
2022/11/01 11:39:48;;;;;;;13.05;2.53;;;;;;;;;;7383013;19;20025;-81
2022/11/01 11:42:16;;;;;;;11.27;2.05;;;;;;;;;;7377874;19;20109;-82
2022/11/01 11:44:41;;;;;;;10.73;2.08;;;;;;;;;;7376992;19;20630;-81
2022/11/01 11:47:26;;;;;;;15.73;2.63;;;;;;;;;;7382557;19;20003;-82
2022/11/01 11:49:53;;;;;;;14.18;2.20;;;;;;;;;;7384801;19;20238;-81
2022/11/01 11:52:23;;;;;;;8.88;2.03;;;;;;;;;;7377656;19;20334;-83
2022/11/01 11:54:48;;;;;;;13.57;2.30;;;;;;;;;;7385054;19;19999;-82
2022/11/01 11:57:21;;;;;;;10.50;2.72;;;;;;;;;;7373895;19;20656;-82
2022/11/01 12:00:00;;;;;;;16.97;2.17;;;;;;;;;;7382665;19;20014;-81
2022/11/01 12:02:26;;;;;;;12.05;2.55;;;;;;;;;;7374429;19;20259;-82
2022/11/01 12:04:53;;;;;;;11.65;2.05;;;;;;;;;;7379218;19;20010;-81
2022/11/01 12:07:23;;;;;;;12.57;1.80;;;;;;;;;;7381211;19;20015;-81
2022/11/01 12:09:49;;;;;;;12.57;2.05;;;;;;;;;;7381575;19;20030;-83
2022/11/01 12:12:15;;;;;;;12.00;2.42;;;;;;;;;;7379746;19;20499;-81
2022/11/01 12:14:41;;;;;;;17.08;2.47;;;;;;;;;;7377762;19;20035;-80
2022/11/01 12:17:22;;;;;;;10.93;2.33;;;;;;;;;;7381422;19;20578;-83
2022/11/01 12:19:47;;;;;;;14.48;2.17;;;;;;;;;;7381252;19;20070;-83
2022/11/01 12:22:13;;;;;;;15.13;2.28;;;;;;;;;;7383318;19;20019;-82
2022/11/01 12:24:46;;;;;;;12.15;2.10;;;;;;;;;;7378476;19;20014;-80
2022/11/01 12:27:14;;;;;;;15.70;2.33;;;;;;;;;;7386576;19;20010;-81
2022/11/01 12:29:50;;;;;;;13.23;1.90;;;;;;;;;;7381138;19;20022;-81
2022/11/01 12:32:18;;;;;;;10.10;2.10;;;;;;;;;;7385162;19;19999;-82
2022/11/01 12:34:45;;;;;;;13.90;2.30;;;;;;;;;;7384243;19;20014;-81
2022/11/01 12:37:19;;;;;;;11.23;1.52;;;;;;;;;;7348837;19;20591;-82
2022/11/01 12:39:49;;;;;;;16.73;2.53;;;;;;;;;;7364427;19;20010;-78
2022/11/01 12:42:22;;;;;;;13.70;2.53;;;;;;;;;;7371949;19;20021;-80
2022/11/01 12:44:50;;;;;;;11.48;2.20;;;;;;;;;;7340585;19;20389;-79
2022/11/01 12:47:18;;;;;;;12.70;1.77;;;;;;;;;;7353748;19;20020;-82
